sensor_id;sensor_type;location;lat;lon;timestamp;pressure;altitude;pressure_sealevel;temperature
15709;BMP180;7954;51.914;8.420;2022-10-16T00:01:43;99811.97;;;21.14
15709;BMP180;7954;51.914;8.420;2022-10-16T00:04:12;99824.44;;;21.11
15709;BMP180;7954;51.914;8.420;2022-10-16T00:06:41;99820.03;;;21.10
15709;BMP180;7954;51.914;8.420;2022-10-16T00:09:09;99834.53;;;21.10
15709;BMP180;7954;51.914;8.420;2022-10-16T00:11:38;99809.97;;;21.12
15709;BMP180;7954;51.914;8.420;2022-10-16T00:14:11;99819.09;;;21.17
15709;BMP180;7954;51.914;8.420;2022-10-16T00:16:40;99815.78;;;21.18
15709;BMP180;7954;51.914;8.420;2022-10-16T00:19:09;99819.44;;;21.20
15709;BMP180;7954;51.914;8.420;2022-10-16T00:21:38;99820.91;;;21.18
15709;BMP180;7954;51.914;8.420;2022-10-16T00:24:08;99825.16;;;21.17
15709;BMP180;7954;51.914;8.420;2022-10-16T00:26:37;99830.84;;;21.15
15709;BMP180;7954;51.914;8.420;2022-10-16T00:29:06;99828.09;;;21.13
15709;BMP180;7954;51.914;8.420;2022-10-16T00:31:37;99827.72;;;21.10
15709;BMP180;7954;51.914;8.420;2022-10-16T00:34:06;99823.16;;;21.08
15709;BMP180;7954;51.914;8.420;2022-10-16T00:36:34;99832.53;;;21.07
15709;BMP180;7954;51.914;8.420;2022-10-16T00:39:02;99826.84;;;21.03
15709;BMP180;7954;51.914;8.420;2022-10-16T00:41:31;99816.97;;;20.99
15709;BMP180;7954;51.914;8.420;2022-10-16T00:44:00;99821.78;;;20.96
15709;BMP180;7954;51.914;8.420;2022-10-16T00:46:33;99829.31;;;20.94
15709;BMP180;7954;51.914;8.420;2022-10-16T00:49:06;99830.44;;;20.89
15709;BMP180;7954;51.914;8.420;2022-10-16T00:51:37;99828.59;;;20.88
15709;BMP180;7954;51.914;8.420;2022-10-16T00:54:09;99828.03;;;20.84
15709;BMP180;7954;51.914;8.420;2022-10-16T00:56:37;99822.91;;;20.84
15709;BMP180;7954;51.914;8.420;2022-10-16T00:59:13;99828.25;;;20.78
15709;BMP180;7954;51.914;8.420;2022-10-16T01:01:41;99820.00;;;20.74
15709;BMP180;7954;51.914;8.420;2022-10-16T01:04:12;99828.97;;;20.70
15709;BMP180;7954;51.914;8.420;2022-10-16T01:06:47;99828.63;;;20.67
15709;BMP180;7954;51.914;8.420;2022-10-16T01:09:21;99847.88;;;20.71
15709;BMP180;7954;51.914;8.420;2022-10-16T01:11:57;99859.25;;;20.66
15709;BMP180;7954;51.914;8.420;2022-10-16T01:14:36;99854.09;;;20.66
15709;BMP180;7954;51.914;8.420;2022-10-16T01:17:10;99847.88;;;20.64
15709;BMP180;7954;51.914;8.420;2022-10-16T01:19:51;99848.59;;;20.63
15709;BMP180;7954;51.914;8.420;2022-10-16T01:22:29;99850.25;;;20.63
15709;BMP180;7954;51.914;8.420;2022-10-16T01:25:05;99851.94;;;20.62
15709;BMP180;7954;51.914;8.420;2022-10-16T01:27:39;99838.72;;;20.59
15709;BMP180;7954;51.914;8.420;2022-10-16T01:30:12;99853.03;;;20.57
15709;BMP180;7954;51.914;8.420;2022-10-16T01:32:44;99851.59;;;20.52
15709;BMP180;7954;51.914;8.420;2022-10-16T01:35:17;99862.41;;;20.50
15709;BMP180;7954;51.914;8.420;2022-10-16T01:37:50;99859.44;;;20.47
15709;BMP180;7954;51.914;8.420;2022-10-16T01:40:24;99870.28;;;20.44
15709;BMP180;7954;51.914;8.420;2022-10-16T01:43:01;99870.28;;;20.44
15709;BMP180;7954;51.914;8.420;2022-10-16T01:45:31;99874.50;;;20.44
15709;BMP180;7954;51.914;8.420;2022-10-16T01:48:02;99872.84;;;20.44
15709;BMP180;7954;51.914;8.420;2022-10-16T01:50:36;99866.06;;;20.45
15709;BMP180;7954;51.914;8.420;2022-10-16T01:53:07;99873.56;;;20.43
15709;BMP180;7954;51.914;8.420;2022-10-16T01:55:41;99864.41;;;20.38
15709;BMP180;7954;51.914;8.420;2022-10-16T01:58:13;99862.59;;;20.37
15709;BMP180;7954;51.914;8.420;2022-10-16T02:00:43;99857.81;;;20.33
15709;BMP180;7954;51.914;8.420;2022-10-16T02:03:14;99857.09;;;20.34
15709;BMP180;7954;51.914;8.420;2022-10-16T02:05:46;99860.03;;;20.30
15709;BMP180;7954;51.914;8.420;2022-10-16T02:08:16;99867.72;;;20.30
15709;BMP180;7954;51.914;8.420;2022-10-16T02:10:45;99870.28;;;20.30
15709;BMP180;7954;51.914;8.420;2022-10-16T02:13:17;99857.84;;;20.26
15709;BMP180;7954;51.914;8.420;2022-10-16T02:15:48;99864.59;;;20.26
15709;BMP180;7954;51.914;8.420;2022-10-16T02:18:16;99857.84;;;20.26
15709;BMP180;7954;51.914;8.420;2022-10-16T02:20:51;99863.88;;;20.27
15709;BMP180;7954;51.914;8.420;2022-10-16T02:23:24;99871.41;;;20.25
15709;BMP180;7954;51.914;8.420;2022-10-16T02:25:58;99850.34;;;20.28
15709;BMP180;7954;51.914;8.420;2022-10-16T02:28:33;99854.19;;;20.31
15709;BMP180;7954;51.914;8.420;2022-10-16T02:31:06;99865.50;;;20.33
15709;BMP180;7954;51.914;8.420;2022-10-16T02:33:37;99856.00;;;20.39
15709;BMP180;7954;51.914;8.420;2022-10-16T02:36:07;99866.41;;;20.41
15709;BMP180;7954;51.914;8.420;2022-10-16T02:38:36;99872.66;;;20.43
15709;BMP180;7954;51.914;8.420;2022-10-16T02:41:05;99881.63;;;20.46
15709;BMP180;7954;51.914;8.420;2022-10-16T02:43:36;99870.28;;;20.51
15709;BMP180;7954;51.914;8.420;2022-10-16T02:46:04;99875.75;;;20.54
15709;BMP180;7954;51.914;8.420;2022-10-16T02:48:31;99868.06;;;20.54
15709;BMP180;7954;51.914;8.420;2022-10-16T02:50:59;99878.88;;;20.52
15709;BMP180;7954;51.914;8.420;2022-10-16T02:53:27;99866.63;;;20.42
15709;BMP180;7954;51.914;8.420;2022-10-16T02:55:56;99862.22;;;20.41
15709;BMP180;7954;51.914;8.420;2022-10-16T02:58:24;99876.50;;;20.39
15709;BMP180;7954;51.914;8.420;2022-10-16T03:00:54;99888.25;;;20.37
15709;BMP180;7954;51.914;8.420;2022-10-16T03:03:23;99884.75;;;20.37
15709;BMP180;7954;51.914;8.420;2022-10-16T03:05:50;99877.59;;;20.34
15709;BMP180;7954;51.914;8.420;2022-10-16T03:08:19;99877.59;;;20.34
15709;BMP180;7954;51.914;8.420;2022-10-16T03:10:50;99885.13;;;20.33
15709;BMP180;7954;51.914;8.420;2022-10-16T03:13:18;99880.56;;;20.30
15709;BMP180;7954;51.914;8.420;2022-10-16T03:15:47;99880.16;;;20.27
15709;BMP180;7954;51.914;8.420;2022-10-16T03:18:17;99884.38;;;20.20
15709;BMP180;7954;51.914;8.420;2022-10-16T03:20:45;99884.59;;;20.21
15709;BMP180;7954;51.914;8.420;2022-10-16T03:23:13;99883.31;;;20.18
15709;BMP180;7954;51.914;8.420;2022-10-16T03:25:41;99878.19;;;20.18
15709;BMP180;7954;51.914;8.420;2022-10-16T03:28:09;99881.66;;;20.18
15709;BMP180;7954;51.914;8.420;2022-10-16T03:30:37;99860.06;;;20.16
15709;BMP180;7954;51.914;8.420;2022-10-16T03:33:06;99876.53;;;20.11
15709;BMP180;7954;51.914;8.420;2022-10-16T03:35:36;99857.66;;;20.11
15709;BMP180;7954;51.914;8.420;2022-10-16T03:38:04;99883.47;;;20.12
15709;BMP180;7954;51.914;8.420;2022-10-16T03:40:32;99879.28;;;20.13
15709;BMP180;7954;51.914;8.420;2022-10-16T03:43:00;99886.41;;;20.15
15709;BMP180;7954;51.914;8.420;2022-10-16T03:45:28;99872.50;;;20.13
15709;BMP180;7954;51.914;8.420;2022-10-16T03:47:56;99886.25;;;20.14
15709;BMP180;7954;51.914;8.420;2022-10-16T03:50:24;99889.34;;;20.18
15709;BMP180;7954;51.914;8.420;2022-10-16T03:52:54;99885.84;;;20.25
15709;BMP180;7954;51.914;8.420;2022-10-16T03:55:22;99894.28;;;20.31
15709;BMP180;7954;51.914;8.420;2022-10-16T03:57:50;99880.56;;;20.30
15709;BMP180;7954;51.914;8.420;2022-10-16T04:00:18;99883.84;;;20.36
15709;BMP180;7954;51.914;8.420;2022-10-16T04:02:47;99881.28;;;20.36
15709;BMP180;7954;51.914;8.420;2022-10-16T04:05:15;99871.94;;;20.37
15709;BMP180;7954;51.914;8.420;2022-10-16T04:07:43;99878.00;;;20.37
15709;BMP180;7954;51.914;8.420;2022-10-16T04:10:12;99871.03;;;20.36
15709;BMP180;7954;51.914;8.420;2022-10-16T04:12:41;99878.69;;;20.43
15709;BMP180;7954;51.914;8.420;2022-10-16T04:15:09;99875.03;;;20.48
15709;BMP180;7954;51.914;8.420;2022-10-16T04:17:37;99873.56;;;20.50
15709;BMP180;7954;51.914;8.420;2022-10-16T04:20:06;99883.81;;;20.57
15709;BMP180;7954;51.914;8.420;2022-10-16T04:22:34;99882.50;;;20.61
15709;BMP180;7954;51.914;8.420;2022-10-16T04:25:02;99886.19;;;20.63
15709;BMP180;7954;51.914;8.420;2022-10-16T04:27:32;99892.94;;;20.69
15709;BMP180;7954;51.914;8.420;2022-10-16T04:30:00;99888.03;;;20.64
15709;BMP180;7954;51.914;8.420;2022-10-16T04:32:28;99908.16;;;20.67
15709;BMP180;7954;51.914;8.420;2022-10-16T04:34:56;99905.78;;;20.69
15709;BMP180;7954;51.914;8.420;2022-10-16T04:37:24;99907.25;;;20.67
15709;BMP180;7954;51.914;8.420;2022-10-16T04:39:53;99907.63;;;20.70
15709;BMP180;7954;51.914;8.420;2022-10-16T04:42:21;99903.81;;;20.73
15709;BMP180;7954;51.914;8.420;2022-10-16T04:44:51;99897.00;;;20.74
15709;BMP180;7954;51.914;8.420;2022-10-16T04:47:20;99902.13;;;20.74
15709;BMP180;7954;51.914;8.420;2022-10-16T04:49:48;99903.06;;;20.74
15709;BMP180;7954;51.914;8.420;2022-10-16T04:52:17;99917.72;;;20.75
15709;BMP180;7954;51.914;8.420;2022-10-16T04:54:45;99921.94;;;20.75
15709;BMP180;7954;51.914;8.420;2022-10-16T04:57:13;99927.06;;;20.75
15709;BMP180;7954;51.914;8.420;2022-10-16T04:59:41;99916.06;;;20.76
15709;BMP180;7954;51.914;8.420;2022-10-16T05:02:10;99913.50;;;20.76
15709;BMP180;7954;51.914;8.420;2022-10-16T05:04:39;99913.13;;;20.73
15709;BMP180;7954;51.914;8.420;2022-10-16T05:07:07;99928.16;;;20.70
15709;BMP180;7954;51.914;8.420;2022-10-16T05:09:34;99938.97;;;20.67
15709;BMP180;7954;51.914;8.420;2022-10-16T05:12:03;99940.25;;;20.64
15709;BMP180;7954;51.914;8.420;2022-10-16T05:14:31;99932.53;;;20.64
15709;BMP180;7954;51.914;8.420;2022-10-16T05:16:59;99935.50;;;20.60
15709;BMP180;7954;51.914;8.420;2022-10-16T05:19:28;99934.03;;;20.55
15709;BMP180;7954;51.914;8.420;2022-10-16T05:21:56;99941.00;;;20.49
15709;BMP180;7954;51.914;8.420;2022-10-16T05:24:24;99946.66;;;20.47
15709;BMP180;7954;51.914;8.420;2022-10-16T05:26:52;99948.50;;;20.41
15709;BMP180;7954;51.914;8.420;2022-10-16T05:29:20;99951.25;;;20.35
15709;BMP180;7954;51.914;8.420;2022-10-16T05:31:50;99945.78;;;20.32
15709;BMP180;7954;51.914;8.420;2022-10-16T05:34:18;99951.25;;;20.28
15709;BMP180;7954;51.914;8.420;2022-10-16T05:36:48;99949.78;;;20.23
15709;BMP180;7954;51.914;8.420;2022-10-16T05:39:16;99944.28;;;20.27
15709;BMP180;7954;51.914;8.420;2022-10-16T05:41:45;99950.91;;;20.25
15709;BMP180;7954;51.914;8.420;2022-10-16T05:44:13;99943.94;;;20.24
15709;BMP180;7954;51.914;8.420;2022-10-16T05:46:41;99964.41;;;20.17
15709;BMP180;7954;51.914;8.420;2022-10-16T05:49:09;99973.59;;;20.15
15709;BMP180;7954;51.914;8.420;2022-10-16T05:51:37;99971.56;;;20.13
15709;BMP180;7954;51.914;8.420;2022-10-16T05:54:07;99985.84;;;20.11
15709;BMP180;7954;51.914;8.420;2022-10-16T05:56:35;99991.91;;;20.11
15709;BMP180;7954;51.914;8.420;2022-10-16T05:59:04;99983.28;;;20.11
15709;BMP180;7954;51.914;8.420;2022-10-16T06:01:32;99986.22;;;20.07
15709;BMP180;7954;51.914;8.420;2022-10-16T06:04:01;99978.53;;;20.07
15709;BMP180;7954;51.914;8.420;2022-10-16T06:06:30;99987.13;;;20.07
15709;BMP180;7954;51.914;8.420;2022-10-16T06:08:57;100002.72;;;20.09
15709;BMP180;7954;51.914;8.420;2022-10-16T06:11:29;100003.44;;;20.08
15709;BMP180;7954;51.914;8.420;2022-10-16T06:13:59;100001.41;;;20.12
15709;BMP180;7954;51.914;8.420;2022-10-16T06:16:29;99996.66;;;20.15
15709;BMP180;7954;51.914;8.420;2022-10-16T06:18:58;100012.06;;;20.15
15709;BMP180;7954;51.914;8.420;2022-10-16T06:21:28;100000.88;;;20.15
15709;BMP180;7954;51.914;8.420;2022-10-16T06:23:57;100010.97;;;20.20
15709;BMP180;7954;51.914;8.420;2022-10-16T06:26:28;99998.13;;;20.27
15709;BMP180;7954;51.914;8.420;2022-10-16T06:28:57;100002.94;;;20.31
15709;BMP180;7954;51.914;8.420;2022-10-16T06:31:26;100010.81;;;20.40
15709;BMP180;7954;51.914;8.420;2022-10-16T06:33:57;100003.31;;;20.41
15709;BMP180;7954;51.914;8.420;2022-10-16T06:36:26;100008.59;;;20.43
15709;BMP180;7954;51.914;8.420;2022-10-16T06:38:54;100016.47;;;20.44
15709;BMP180;7954;51.914;8.420;2022-10-16T06:41:22;100015.19;;;20.41
15709;BMP180;7954;51.914;8.420;2022-10-16T06:43:52;100027.84;;;20.46
15709;BMP180;7954;51.914;8.420;2022-10-16T06:46:22;100041.97;;;20.50
15709;BMP180;7954;51.914;8.420;2022-10-16T06:48:50;100034.28;;;20.50
15709;BMP180;7954;51.914;8.420;2022-10-16T06:51:20;100033.53;;;20.51
15709;BMP180;7954;51.914;8.420;2022-10-16T06:53:49;100043.78;;;20.51
15709;BMP180;7954;51.914;8.420;2022-10-16T06:56:33;100063.22;;;20.56
15709;BMP180;7954;51.914;8.420;2022-10-16T06:59:03;100054.25;;;20.59
15709;BMP180;7954;51.914;8.420;2022-10-16T07:01:32;100054.25;;;20.66
15709;BMP180;7954;51.914;8.420;2022-10-16T07:04:02;100048.94;;;20.71
15709;BMP180;7954;51.914;8.420;2022-10-16T07:06:32;100053.56;;;20.81
15709;BMP180;7954;51.914;8.420;2022-10-16T07:09:02;100064.91;;;20.83
15709;BMP180;7954;51.914;8.420;2022-10-16T07:11:30;100069.72;;;20.87
15709;BMP180;7954;51.914;8.420;2022-10-16T07:13:59;100060.34;;;20.87
15709;BMP180;7954;51.914;8.420;2022-10-16T07:16:30;100071.34;;;20.93
15709;BMP180;7954;51.914;8.420;2022-10-16T07:18:59;100076.47;;;21.00
15709;BMP180;7954;51.914;8.420;2022-10-16T07:21:29;100073.72;;;20.99
15709;BMP180;7954;51.914;8.420;2022-10-16T07:24:01;100080.72;;;21.07
15709;BMP180;7954;51.914;8.420;2022-10-16T07:26:31;100088.75;;;21.10
15709;BMP180;7954;51.914;8.420;2022-10-16T07:29:00;100093.13;;;21.18
15709;BMP180;7954;51.914;8.420;2022-10-16T07:31:31;100099.00;;;21.24
15709;BMP180;7954;51.914;8.420;2022-10-16T07:34:00;100105.09;;;21.24
15709;BMP180;7954;51.914;8.420;2022-10-16T07:36:28;100096.44;;;21.31
15709;BMP180;7954;51.914;8.420;2022-10-16T07:38:56;100113.69;;;21.32
15709;BMP180;7954;51.914;8.420;2022-10-16T07:41:26;100120.47;;;21.31
15709;BMP180;7954;51.914;8.420;2022-10-16T07:43:55;100120.47;;;21.38
15709;BMP180;7954;51.914;8.420;2022-10-16T07:46:26;100128.34;;;21.39
15709;BMP180;7954;51.914;8.420;2022-10-16T07:48:57;100133.69;;;21.34
15709;BMP180;7954;51.914;8.420;2022-10-16T07:51:26;100137.56;;;21.31
15709;BMP180;7954;51.914;8.420;2022-10-16T07:53:53;100147.09;;;21.32
15709;BMP180;7954;51.914;8.420;2022-10-16T07:56:22;100144.88;;;21.34
15709;BMP180;7954;51.914;8.420;2022-10-16T07:58:50;100148.91;;;21.32
15709;BMP180;7954;51.914;8.420;2022-10-16T08:01:18;100147.28;;;21.33
15709;BMP180;7954;51.914;8.420;2022-10-16T08:03:47;100145.09;;;21.29
15709;BMP180;7954;51.914;8.420;2022-10-16T08:06:18;100138.28;;;21.36
15709;BMP180;7954;51.914;8.420;2022-10-16T08:08:54;100138.84;;;21.34
15709;BMP180;7954;51.914;8.420;2022-10-16T08:11:22;100149.47;;;21.37
15709;BMP180;7954;51.914;8.420;2022-10-16T08:13:52;100137.91;;;21.40
15709;BMP180;7954;51.914;8.420;2022-10-16T08:16:20;100156.97;;;21.49
15709;BMP180;7954;51.914;8.420;2022-10-16T08:18:48;100155.91;;;21.54
15709;BMP180;7954;51.914;8.420;2022-10-16T08:21:21;100158.47;;;21.61
15709;BMP180;7954;51.914;8.420;2022-10-16T08:23:52;100154.59;;;21.79
15709;BMP180;7954;51.914;8.420;2022-10-16T08:26:24;100160.03;;;21.96
15709;BMP180;7954;51.914;8.420;2022-10-16T08:28:52;100160.53;;;22.07
15709;BMP180;7954;51.914;8.420;2022-10-16T08:31:21;100167.56;;;22.01
15709;BMP180;7954;51.914;8.420;2022-10-16T08:33:49;100168.63;;;22.10
15709;BMP180;7954;51.914;8.420;2022-10-16T08:36:20;100173.72;;;22.17
15709;BMP180;7954;51.914;8.420;2022-10-16T08:38:49;100177.94;;;22.30
15709;BMP180;7954;51.914;8.420;2022-10-16T08:41:26;100185.09;;;22.40
15709;BMP180;7954;51.914;8.420;2022-10-16T08:44:13;100183.38;;;22.47
15709;BMP180;7954;51.914;8.420;2022-10-16T08:46:50;100189.44;;;22.48
15709;BMP180;7954;51.914;8.420;2022-10-16T08:49:21;100194.16;;;22.59
15709;BMP180;7954;51.914;8.420;2022-10-16T08:51:52;100205.94;;;22.57
15709;BMP180;7954;51.914;8.420;2022-10-16T08:54:29;100195.94;;;22.66
15709;BMP180;7954;51.914;8.420;2022-10-16T08:57:01;100193.75;;;22.69
15709;BMP180;7954;51.914;8.420;2022-10-16T08:59:34;100198.34;;;22.72
15709;BMP180;7954;51.914;8.420;2022-10-16T09:02:19;100207.00;;;22.95
15709;BMP180;7954;51.914;8.420;2022-10-16T09:05:06;100207.28;;;22.82
15709;BMP180;7954;51.914;8.420;2022-10-16T09:07:46;100210.56;;;22.88
15709;BMP180;7954;51.914;8.420;2022-10-16T09:10:26;100209.59;;;22.95
15709;BMP180;7954;51.914;8.420;2022-10-16T09:13:02;100198.69;;;23.11
15709;BMP180;7954;51.914;8.420;2022-10-16T09:15:39;100217.78;;;23.13
15709;BMP180;7954;51.914;8.420;2022-10-16T09:18:15;100212.34;;;23.26
15709;BMP180;7954;51.914;8.420;2022-10-16T09:20:51;100217.47;;;23.32
15709;BMP180;7954;51.914;8.420;2022-10-16T09:23:26;100215.97;;;23.57
15709;BMP180;7954;51.914;8.420;2022-10-16T09:25:55;100223.63;;;23.48
15709;BMP180;7954;51.914;8.420;2022-10-16T09:28:24;100221.13;;;23.57
15709;BMP180;7954;51.914;8.420;2022-10-16T09:30:52;100220.81;;;23.69
15709;BMP180;7954;51.914;8.420;2022-10-16T09:33:24;100219.19;;;23.92
15709;BMP180;7954;51.914;8.420;2022-10-16T09:35:56;100224.44;;;24.00
15709;BMP180;7954;51.914;8.420;2022-10-16T09:38:29;100218.38;;;23.78
15709;BMP180;7954;51.914;8.420;2022-10-16T09:40:58;100227.69;;;23.62
15709;BMP180;7954;51.914;8.420;2022-10-16T09:43:34;100219.91;;;23.69
15709;BMP180;7954;51.914;8.420;2022-10-16T09:46:04;100230.69;;;23.80
15709;BMP180;7954;51.914;8.420;2022-10-16T09:48:36;100217.84;;;23.96
15709;BMP180;7954;51.914;8.420;2022-10-16T09:51:13;100223.66;;;24.01
15709;BMP180;7954;51.914;8.420;2022-10-16T09:53:46;100239.97;;;23.78
15709;BMP180;7954;51.914;8.420;2022-10-16T09:56:22;100226.97;;;23.63
15709;BMP180;7954;51.914;8.420;2022-10-16T09:58:51;100224.75;;;23.88
15709;BMP180;7954;51.914;8.420;2022-10-16T10:01:20;100242.22;;;23.91
15709;BMP180;7954;51.914;8.420;2022-10-16T10:03:50;100245.31;;;23.73
15709;BMP180;7954;51.914;8.420;2022-10-16T10:06:23;100245.19;;;23.87
15709;BMP180;7954;51.914;8.420;2022-10-16T10:09:19;100236.66;;;23.95
15709;BMP180;7954;51.914;8.420;2022-10-16T10:11:53;100249.97;;;23.91
15709;BMP180;7954;51.914;8.420;2022-10-16T10:14:24;100243.66;;;23.96
15709;BMP180;7954;51.914;8.420;2022-10-16T10:17:12;100238.97;;;24.00
15709;BMP180;7954;51.914;8.420;2022-10-16T10:19:44;100259.03;;;24.02
15709;BMP180;7954;51.914;8.420;2022-10-16T10:22:18;100243.59;;;24.18
15709;BMP180;7954;51.914;8.420;2022-10-16T10:24:56;100252.56;;;24.21
15709;BMP180;7954;51.914;8.420;2022-10-16T10:27:32;100254.72;;;24.10
15709;BMP180;7954;51.914;8.420;2022-10-16T10:30:08;100251.25;;;24.09
15709;BMP180;7954;51.914;8.420;2022-10-16T10:32:45;100263.84;;;24.22
15709;BMP180;7954;51.914;8.420;2022-10-16T10:35:22;100248.09;;;24.27
15709;BMP180;7954;51.914;8.420;2022-10-16T10:38:02;100264.16;;;24.25
15709;BMP180;7954;51.914;8.420;2022-10-16T10:40:42;100250.25;;;24.31
15709;BMP180;7954;51.914;8.420;2022-10-16T10:43:21;100255.13;;;24.59
15709;BMP180;7954;51.914;8.420;2022-10-16T10:45:54;100249.78;;;24.73
15709;BMP180;7954;51.914;8.420;2022-10-16T10:48:39;100251.38;;;25.03
15709;BMP180;7954;51.914;8.420;2022-10-16T10:51:12;100253.31;;;25.13
15709;BMP180;7954;51.914;8.420;2022-10-16T10:53:44;100243.81;;;25.05
15709;BMP180;7954;51.914;8.420;2022-10-16T10:56:24;100261.72;;;25.19
15709;BMP180;7954;51.914;8.420;2022-10-16T10:59:08;100248.81;;;25.19
15709;BMP180;7954;51.914;8.420;2022-10-16T11:01:43;100244.09;;;25.23
15709;BMP180;7954;51.914;8.420;2022-10-16T11:04:31;100260.41;;;25.07
15709;BMP180;7954;51.914;8.420;2022-10-16T11:07:04;100262.25;;;25.08
15709;BMP180;7954;51.914;8.420;2022-10-16T11:09:36;100266.34;;;24.90
15709;BMP180;7954;51.914;8.420;2022-10-16T11:12:12;100270.06;;;24.62
15709;BMP180;7954;51.914;8.420;2022-10-16T11:14:47;100270.06;;;24.62
15709;BMP180;7954;51.914;8.420;2022-10-16T11:17:19;100271.63;;;24.68
15709;BMP180;7954;51.914;8.420;2022-10-16T11:19:51;100266.28;;;24.51
15709;BMP180;7954;51.914;8.420;2022-10-16T11:22:26;100275.28;;;24.39
15709;BMP180;7954;51.914;8.420;2022-10-16T11:25:00;100300.53;;;24.42
15709;BMP180;7954;51.914;8.420;2022-10-16T11:27:37;100284.00;;;24.33
15709;BMP180;7954;51.914;8.420;2022-10-16T11:30:14;100271.25;;;24.34
15709;BMP180;7954;51.914;8.420;2022-10-16T11:33:04;100268.38;;;24.47
15709;BMP180;7954;51.914;8.420;2022-10-16T11:35:39;100273.63;;;24.55
15709;BMP180;7954;51.914;8.420;2022-10-16T11:38:14;100278.72;;;24.77
15709;BMP180;7954;51.914;8.420;2022-10-16T11:40:45;100279.34;;;24.83
15709;BMP180;7954;51.914;8.420;2022-10-16T11:43:22;100284.88;;;24.56
15709;BMP180;7954;51.914;8.420;2022-10-16T11:45:55;100307.69;;;24.60
15709;BMP180;7954;51.914;8.420;2022-10-16T11:48:30;100283.03;;;24.55
15709;BMP180;7954;51.914;8.420;2022-10-16T11:51:05;100280.38;;;24.62
15709;BMP180;7954;51.914;8.420;2022-10-16T11:53:44;100289.88;;;24.54
15709;BMP180;7954;51.914;8.420;2022-10-16T11:56:15;100282.94;;;24.46
15709;BMP180;7954;51.914;8.420;2022-10-16T11:58:53;100281.59;;;24.34
15709;BMP180;7954;51.914;8.420;2022-10-16T12:01:27;100293.09;;;24.45
15709;BMP180;7954;51.914;8.420;2022-10-16T12:04:04;100288.38;;;24.41
15709;BMP180;7954;51.914;8.420;2022-10-16T12:06:37;100284.78;;;24.47
15709;BMP180;7954;51.914;8.420;2022-10-16T12:09:14;100290.41;;;24.36
15709;BMP180;7954;51.914;8.420;2022-10-16T12:11:43;100292.63;;;24.40
15709;BMP180;7954;51.914;8.420;2022-10-16T12:14:35;100288.78;;;24.52
15709;BMP180;7954;51.914;8.420;2022-10-16T12:17:27;100295.19;;;24.71
15709;BMP180;7954;51.914;8.420;2022-10-16T12:20:12;100292.09;;;24.82
15709;BMP180;7954;51.914;8.420;2022-10-16T12:22:49;100303.44;;;24.91
15709;BMP180;7954;51.914;8.420;2022-10-16T12:25:22;100293.28;;;25.08
15709;BMP180;7954;51.914;8.420;2022-10-16T12:27:57;100294.03;;;25.07
15709;BMP180;7954;51.914;8.420;2022-10-16T12:30:29;100295.72;;;25.06
15709;BMP180;7954;51.914;8.420;2022-10-16T12:33:02;100284.69;;;25.39
15709;BMP180;7954;51.914;8.420;2022-10-16T12:35:33;100300.09;;;25.23
15709;BMP180;7954;51.914;8.420;2022-10-16T12:38:07;100305.38;;;25.39
15709;BMP180;7954;51.914;8.420;2022-10-16T12:40:37;100295.38;;;25.90
15709;BMP180;7954;51.914;8.420;2022-10-16T12:43:24;100288.00;;;26.27
15709;BMP180;7954;51.914;8.420;2022-10-16T12:46:02;100292.09;;;26.57
15709;BMP180;7954;51.914;8.420;2022-10-16T12:48:31;100285.69;;;26.79
15709;BMP180;7954;51.914;8.420;2022-10-16T12:51:23;100289.41;;;27.31
15709;BMP180;7954;51.914;8.420;2022-10-16T12:53:58;100291.75;;;27.72
15709;BMP180;7954;51.914;8.420;2022-10-16T12:56:36;100296.84;;;28.06
15709;BMP180;7954;51.914;8.420;2022-10-16T12:59:16;100279.41;;;28.40
15709;BMP180;7954;51.914;8.420;2022-10-16T13:02:03;100282.19;;;28.87
15709;BMP180;7954;51.914;8.420;2022-10-16T13:04:46;100284.84;;;29.33
15709;BMP180;7954;51.914;8.420;2022-10-16T13:07:31;100271.53;;;29.12
15709;BMP180;7954;51.914;8.420;2022-10-16T13:10:14;100300.09;;;28.57
15709;BMP180;7954;51.914;8.420;2022-10-16T13:12:59;100292.75;;;27.99
15709;BMP180;7954;51.914;8.420;2022-10-16T13:15:39;100302.16;;;28.24
15709;BMP180;7954;51.914;8.420;2022-10-16T13:18:14;100293.63;;;28.08
15709;BMP180;7954;51.914;8.420;2022-10-16T13:20:56;100291.06;;;28.35
15709;BMP180;7954;51.914;8.420;2022-10-16T13:23:33;100309.25;;;28.00
15709;BMP180;7954;51.914;8.420;2022-10-16T13:26:13;100302.19;;;27.47
15709;BMP180;7954;51.914;8.420;2022-10-16T13:28:43;100306.16;;;27.35
15709;BMP180;7954;51.914;8.420;2022-10-16T13:31:15;100307.16;;;27.88
15709;BMP180;7954;51.914;8.420;2022-10-16T13:33:49;100300.34;;;27.63
15709;BMP180;7954;51.914;8.420;2022-10-16T13:36:22;100310.34;;;27.93
15709;BMP180;7954;51.914;8.420;2022-10-16T13:39:01;100316.28;;;27.92
15709;BMP180;7954;51.914;8.420;2022-10-16T13:41:32;100320.28;;;28.59
15709;BMP180;7954;51.914;8.420;2022-10-16T13:44:01;100313.72;;;28.28
15709;BMP180;7954;51.914;8.420;2022-10-16T13:46:29;100326.66;;;28.36
15709;BMP180;7954;51.914;8.420;2022-10-16T13:49:04;100311.06;;;28.90
15709;BMP180;7954;51.914;8.420;2022-10-16T13:51:33;100308.81;;;29.21
15709;BMP180;7954;51.914;8.420;2022-10-16T13:54:00;100315.91;;;29.50
15709;BMP180;7954;51.914;8.420;2022-10-16T13:56:30;100311.50;;;30.16
15709;BMP180;7954;51.914;8.420;2022-10-16T13:59:00;100298.69;;;30.87
15709;BMP180;7954;51.914;8.420;2022-10-16T14:01:29;100295.75;;;31.43
15709;BMP180;7954;51.914;8.420;2022-10-16T14:04:05;100289.63;;;31.43
15709;BMP180;7954;51.914;8.420;2022-10-16T14:06:35;100287.25;;;31.56
15709;BMP180;7954;51.914;8.420;2022-10-16T14:09:06;100298.19;;;31.11
15709;BMP180;7954;51.914;8.420;2022-10-16T14:11:43;100319.09;;;30.33
15709;BMP180;7954;51.914;8.420;2022-10-16T14:14:13;100327.06;;;29.68
15709;BMP180;7954;51.914;8.420;2022-10-16T14:16:43;100333.78;;;29.19
15709;BMP180;7954;51.914;8.420;2022-10-16T14:19:19;100339.81;;;29.10
15709;BMP180;7954;51.914;8.420;2022-10-16T14:21:50;100331.63;;;29.70
15709;BMP180;7954;51.914;8.420;2022-10-16T14:24:26;100332.81;;;29.45
15709;BMP180;7954;51.914;8.420;2022-10-16T14:26:55;100333.84;;;29.94
15709;BMP180;7954;51.914;8.420;2022-10-16T14:29:25;100313.44;;;30.57
15709;BMP180;7954;51.914;8.420;2022-10-16T14:31:55;100315.81;;;31.03
15709;BMP180;7954;51.914;8.420;2022-10-16T14:34:29;100316.44;;;31.72
15709;BMP180;7954;51.914;8.420;2022-10-16T14:37:00;100298.59;;;32.19
15709;BMP180;7954;51.914;8.420;2022-10-16T14:39:33;100295.75;;;32.06
15709;BMP180;7954;51.914;8.420;2022-10-16T14:42:01;100305.00;;;31.40